sensor_id;sensor_type;location;lat;lon;timestamp;temperature;humidity
37410;DHT22;23275;48.914;12.566;2023-06-01T00:00:50;14.70;99.90
37410;DHT22;23275;48.914;12.566;2023-06-01T00:03:16;14.70;99.90
37410;DHT22;23275;48.914;12.566;2023-06-01T00:05:41;14.70;99.90
37410;DHT22;23275;48.914;12.566;2023-06-01T00:08:07;14.60;99.90
37410;DHT22;23275;48.914;12.566;2023-06-01T00:10:32;14.60;99.90
37410;DHT22;23275;48.914;12.566;2023-06-01T00:12:58;14.50;99.90
37410;DHT22;23275;48.914;12.566;2023-06-01T00:15:24;14.50;99.90
37410;DHT22;23275;48.914;12.566;2023-06-01T00:17:49;14.40;99.90
37410;DHT22;23275;48.914;12.566;2023-06-01T00:20:17;14.40;99.90
37410;DHT22;23275;48.914;12.566;2023-06-01T00:22:43;14.40;99.90
37410;DHT22;23275;48.914;12.566;2023-06-01T00:25:09;14.40;99.90
37410;DHT22;23275;48.914;12.566;2023-06-01T00:27:35;14.40;99.90
37410;DHT22;23275;48.914;12.566;2023-06-01T00:30:01;14.40;99.90
37410;DHT22;23275;48.914;12.566;2023-06-01T00:32:27;14.30;99.90
37410;DHT22;23275;48.914;12.566;2023-06-01T00:34:53;14.20;99.90
37410;DHT22;23275;48.914;12.566;2023-06-01T00:37:18;14.20;99.90
37410;DHT22;23275;48.914;12.566;2023-06-01T00:39:44;14.20;99.90
37410;DHT22;23275;48.914;12.566;2023-06-01T00:42:09;14.20;99.90
37410;DHT22;23275;48.914;12.566;2023-06-01T00:44:35;14.20;99.90
37410;DHT22;23275;48.914;12.566;2023-06-01T00:47:00;14.20;99.90
37410;DHT22;23275;48.914;12.566;2023-06-01T00:49:26;14.20;99.90
37410;DHT22;23275;48.914;12.566;2023-06-01T00:51:53;14.20;99.90
37410;DHT22;23275;48.914;12.566;2023-06-01T00:54:18;14.10;99.90
37410;DHT22;23275;48.914;12.566;2023-06-01T00:56:45;14.10;99.90
37410;DHT22;23275;48.914;12.566;2023-06-01T00:59:12;14.00;99.90
37410;DHT22;23275;48.914;12.566;2023-06-01T01:01:37;14.00;99.90
37410;DHT22;23275;48.914;12.566;2023-06-01T01:04:03;13.90;99.90
37410;DHT22;23275;48.914;12.566;2023-06-01T01:09:38;13.90;99.90
37410;DHT22;23275;48.914;12.566;2023-06-01T01:12:23;13.80;99.90
37410;DHT22;23275;48.914;12.566;2023-06-01T01:15:07;13.80;99.90
37410;DHT22;23275;48.914;12.566;2023-06-01T01:17:40;13.80;99.90
37410;DHT22;23275;48.914;12.566;2023-06-01T01:20:29;13.70;99.90
37410;DHT22;23275;48.914;12.566;2023-06-01T01:30:59;13.50;99.90
37410;DHT22;23275;48.914;12.566;2023-06-01T01:33:26;13.50;99.90
37410;DHT22;23275;48.914;12.566;2023-06-01T01:35:53;13.40;99.90
37410;DHT22;23275;48.914;12.566;2023-06-01T01:38:18;13.30;99.90
37410;DHT22;23275;48.914;12.566;2023-06-01T01:40:44;13.20;99.90
37410;DHT22;23275;48.914;12.566;2023-06-01T01:43:10;13.10;99.90
37410;DHT22;23275;48.914;12.566;2023-06-01T01:45:36;13.10;99.90
37410;DHT22;23275;48.914;12.566;2023-06-01T01:50:37;13.00;99.90
37410;DHT22;23275;48.914;12.566;2023-06-01T01:53:06;13.00;99.90
37410;DHT22;23275;48.914;12.566;2023-06-01T01:55:33;13.00;99.90
37410;DHT22;23275;48.914;12.566;2023-06-01T01:58:01;13.00;99.90
37410;DHT22;23275;48.914;12.566;2023-06-01T02:00:28;13.00;99.90
37410;DHT22;23275;48.914;12.566;2023-06-01T02:02:54;13.00;99.90
37410;DHT22;23275;48.914;12.566;2023-06-01T02:05:20;13.00;99.90
37410;DHT22;23275;48.914;12.566;2023-06-01T02:07:45;13.00;99.90
37410;DHT22;23275;48.914;12.566;2023-06-01T02:10:11;13.00;99.90
37410;DHT22;23275;48.914;12.566;2023-06-01T02:12:36;13.00;99.90
37410;DHT22;23275;48.914;12.566;2023-06-01T02:15:03;13.00;99.90
37410;DHT22;23275;48.914;12.566;2023-06-01T02:17:28;13.00;99.90
37410;DHT22;23275;48.914;12.566;2023-06-01T02:19:54;13.00;99.90
37410;DHT22;23275;48.914;12.566;2023-06-01T02:22:20;13.00;99.90
37410;DHT22;23275;48.914;12.566;2023-06-01T02:24:45;12.90;99.90
37410;DHT22;23275;48.914;12.566;2023-06-01T02:27:11;12.90;99.90
37410;DHT22;23275;48.914;12.566;2023-06-01T02:29:37;12.90;99.90
37410;DHT22;23275;48.914;12.566;2023-06-01T02:32:03;12.80;99.90
37410;DHT22;23275;48.914;12.566;2023-06-01T02:34:28;12.70;99.90
37410;DHT22;23275;48.914;12.566;2023-06-01T02:36:54;12.70;99.90
37410;DHT22;23275;48.914;12.566;2023-06-01T02:39:23;12.50;99.90
37410;DHT22;23275;48.914;12.566;2023-06-01T02:41:49;12.50;99.90
37410;DHT22;23275;48.914;12.566;2023-06-01T02:44:14;12.40;99.90
37410;DHT22;23275;48.914;12.566;2023-06-01T02:46:40;12.30;99.90
37410;DHT22;23275;48.914;12.566;2023-06-01T02:49:06;12.20;99.90
37410;DHT22;23275;48.914;12.566;2023-06-01T02:51:31;12.10;99.90
37410;DHT22;23275;48.914;12.566;2023-06-01T02:53:58;12.10;99.90
37410;DHT22;23275;48.914;12.566;2023-06-01T02:56:24;12.00;99.90
37410;DHT22;23275;48.914;12.566;2023-06-01T02:58:49;11.90;99.90
37410;DHT22;23275;48.914;12.566;2023-06-01T03:01:15;11.80;99.90
37410;DHT22;23275;48.914;12.566;2023-06-01T03:03:41;11.70;99.90
37410;DHT22;23275;48.914;12.566;2023-06-01T03:06:07;11.70;99.90
37410;DHT22;23275;48.914;12.566;2023-06-01T03:08:34;11.70;99.90
37410;DHT22;23275;48.914;12.566;2023-06-01T03:10:59;11.60;99.90
37410;DHT22;23275;48.914;12.566;2023-06-01T03:13:25;11.70;99.90
37410;DHT22;23275;48.914;12.566;2023-06-01T03:15:51;11.70;99.90
37410;DHT22;23275;48.914;12.566;2023-06-01T03:18:16;11.70;99.90
37410;DHT22;23275;48.914;12.566;2023-06-01T03:20:42;11.70;99.90
37410;DHT22;23275;48.914;12.566;2023-06-01T03:23:08;11.70;99.90
37410;DHT22;23275;48.914;12.566;2023-06-01T03:25:33;11.70;99.90
37410;DHT22;23275;48.914;12.566;2023-06-01T03:27:59;11.70;99.90
37410;DHT22;23275;48.914;12.566;2023-06-01T03:30:24;11.60;99.90
37410;DHT22;23275;48.914;12.566;2023-06-01T03:32:50;11.70;99.90
37410;DHT22;23275;48.914;12.566;2023-06-01T03:35:16;11.60;99.90
37410;DHT22;23275;48.914;12.566;2023-06-01T03:37:43;11.60;99.90
37410;DHT22;23275;48.914;12.566;2023-06-01T03:40:10;11.60;99.90
37410;DHT22;23275;48.914;12.566;2023-06-01T03:42:43;11.60;99.90
37410;DHT22;23275;48.914;12.566;2023-06-01T03:45:11;11.70;99.90
37410;DHT22;23275;48.914;12.566;2023-06-01T03:47:37;11.70;99.90
37410;DHT22;23275;48.914;12.566;2023-06-01T03:50:03;11.70;99.90
37410;DHT22;23275;48.914;12.566;2023-06-01T03:52:30;11.70;99.90
37410;DHT22;23275;48.914;12.566;2023-06-01T03:54:57;11.70;99.90
37410;DHT22;23275;48.914;12.566;2023-06-01T03:57:23;11.60;99.90
37410;DHT22;23275;48.914;12.566;2023-06-01T03:59:49;11.60;99.90
37410;DHT22;23275;48.914;12.566;2023-06-01T04:02:15;11.70;99.90
37410;DHT22;23275;48.914;12.566;2023-06-01T04:04:42;11.70;99.90
37410;DHT22;23275;48.914;12.566;2023-06-01T04:07:12;11.70;99.90
37410;DHT22;23275;48.914;12.566;2023-06-01T04:09:43;11.70;99.90
37410;DHT22;23275;48.914;12.566;2023-06-01T04:12:09;11.70;99.90
37410;DHT22;23275;48.914;12.566;2023-06-01T04:14:36;11.60;99.90
37410;DHT22;23275;48.914;12.566;2023-06-01T04:17:02;11.60;99.90
37410;DHT22;23275;48.914;12.566;2023-06-01T04:19:28;11.60;99.90
37410;DHT22;23275;48.914;12.566;2023-06-01T04:21:53;11.60;99.90
37410;DHT22;23275;48.914;12.566;2023-06-01T04:24:19;11.70;99.90
37410;DHT22;23275;48.914;12.566;2023-06-01T04:26:45;11.70;99.90
37410;DHT22;23275;48.914;12.566;2023-06-01T04:29:11;11.80;99.90
37410;DHT22;23275;48.914;12.566;2023-06-01T04:31:37;11.80;99.90
37410;DHT22;23275;48.914;12.566;2023-06-01T04:34:03;11.80;99.90
37410;DHT22;23275;48.914;12.566;2023-06-01T04:36:32;11.90;99.90
37410;DHT22;23275;48.914;12.566;2023-06-01T04:38:58;12.00;99.90
37410;DHT22;23275;48.914;12.566;2023-06-01T04:41:24;12.10;99.90
37410;DHT22;23275;48.914;12.566;2023-06-01T04:43:54;12.10;99.90
37410;DHT22;23275;48.914;12.566;2023-06-01T04:46:24;12.20;99.90
37410;DHT22;23275;48.914;12.566;2023-06-01T04:48:54;12.30;99.90
37410;DHT22;23275;48.914;12.566;2023-06-01T04:51:24;12.40;99.90
37410;DHT22;23275;48.914;12.566;2023-06-01T04:53:51;12.40;99.90
37410;DHT22;23275;48.914;12.566;2023-06-01T04:56:21;12.50;99.90
37410;DHT22;23275;48.914;12.566;2023-06-01T04:58:53;12.60;99.90
37410;DHT22;23275;48.914;12.566;2023-06-01T05:01:22;12.80;99.90
37410;DHT22;23275;48.914;12.566;2023-06-01T05:03:51;13.00;99.90
37410;DHT22;23275;48.914;12.566;2023-06-01T05:06:18;13.20;99.90
37410;DHT22;23275;48.914;12.566;2023-06-01T05:08:45;13.50;99.90
37410;DHT22;23275;48.914;12.566;2023-06-01T05:11:10;13.80;99.90
37410;DHT22;23275;48.914;12.566;2023-06-01T05:13:37;14.10;99.90
37410;DHT22;23275;48.914;12.566;2023-06-01T05:16:03;14.30;99.90
37410;DHT22;23275;48.914;12.566;2023-06-01T05:18:29;14.60;99.90
37410;DHT22;23275;48.914;12.566;2023-06-01T05:20:55;15.00;99.90
37410;DHT22;23275;48.914;12.566;2023-06-01T05:23:21;15.30;99.90
37410;DHT22;23275;48.914;12.566;2023-06-01T05:25:47;15.50;99.90
37410;DHT22;23275;48.914;12.566;2023-06-01T05:28:12;15.70;99.90
37410;DHT22;23275;48.914;12.566;2023-06-01T05:30:38;16.00;99.90
37410;DHT22;23275;48.914;12.566;2023-06-01T05:33:03;16.20;99.90
37410;DHT22;23275;48.914;12.566;2023-06-01T05:35:29;16.30;99.90
37410;DHT22;23275;48.914;12.566;2023-06-01T05:37:55;16.50;99.90
37410;DHT22;23275;48.914;12.566;2023-06-01T05:40:20;16.80;99.90
37410;DHT22;23275;48.914;12.566;2023-06-01T05:42:46;17.00;99.90
37410;DHT22;23275;48.914;12.566;2023-06-01T05:45:12;17.20;99.90
37410;DHT22;23275;48.914;12.566;2023-06-01T05:47:38;17.40;99.90
37410;DHT22;23275;48.914;12.566;2023-06-01T05:50:04;17.60;99.90
37410;DHT22;23275;48.914;12.566;2023-06-01T05:52:30;17.70;99.90
37410;DHT22;23275;48.914;12.566;2023-06-01T05:54:56;17.70;99.90
37410;DHT22;23275;48.914;12.566;2023-06-01T05:57:21;17.70;99.90
37410;DHT22;23275;48.914;12.566;2023-06-01T05:59:47;17.90;99.90
37410;DHT22;23275;48.914;12.566;2023-06-01T06:02:15;18.00;99.90
37410;DHT22;23275;48.914;12.566;2023-06-01T06:04:41;18.20;99.90
37410;DHT22;23275;48.914;12.566;2023-06-01T06:07:06;18.40;99.90
37410;DHT22;23275;48.914;12.566;2023-06-01T06:09:33;18.70;99.90
37410;DHT22;23275;48.914;12.566;2023-06-01T06:11:58;19.00;99.90
37410;DHT22;23275;48.914;12.566;2023-06-01T06:14:25;19.10;99.90
37410;DHT22;23275;48.914;12.566;2023-06-01T06:16:50;19.20;99.90
37410;DHT22;23275;48.914;12.566;2023-06-01T06:19:16;19.30;99.90
37410;DHT22;23275;48.914;12.566;2023-06-01T06:21:41;19.40;99.90
37410;DHT22;23275;48.914;12.566;2023-06-01T06:24:07;19.40;99.90
37410;DHT22;23275;48.914;12.566;2023-06-01T06:26:33;19.40;99.90
37410;DHT22;23275;48.914;12.566;2023-06-01T06:28:58;19.60;99.90
37410;DHT22;23275;48.914;12.566;2023-06-01T06:31:24;19.70;99.90
37410;DHT22;23275;48.914;12.566;2023-06-01T06:33:50;19.80;99.90
37410;DHT22;23275;48.914;12.566;2023-06-01T06:36:16;19.90;99.90
37410;DHT22;23275;48.914;12.566;2023-06-01T06:38:42;19.90;99.90
37410;DHT22;23275;48.914;12.566;2023-06-01T06:41:08;20.00;99.90
37410;DHT22;23275;48.914;12.566;2023-06-01T06:43:34;20.30;99.90
37410;DHT22;23275;48.914;12.566;2023-06-01T06:45:59;20.30;99.90
37410;DHT22;23275;48.914;12.566;2023-06-01T06:48:25;20.60;99.90
37410;DHT22;23275;48.914;12.566;2023-06-01T06:50:51;20.90;99.90
37410;DHT22;23275;48.914;12.566;2023-06-01T06:53:16;21.20;99.90
37410;DHT22;23275;48.914;12.566;2023-06-01T06:55:43;21.40;99.90
37410;DHT22;23275;48.914;12.566;2023-06-01T06:58:10;21.70;99.90
37410;DHT22;23275;48.914;12.566;2023-06-01T07:00:36;21.80;99.90
37410;DHT22;23275;48.914;12.566;2023-06-01T07:03:02;21.90;99.90
37410;DHT22;23275;48.914;12.566;2023-06-01T07:05:28;22.20;99.90
37410;DHT22;23275;48.914;12.566;2023-06-01T07:07:54;22.40;99.90
37410;DHT22;23275;48.914;12.566;2023-06-01T07:10:20;22.60;99.90
37410;DHT22;23275;48.914;12.566;2023-06-01T07:12:45;22.80;99.90
37410;DHT22;23275;48.914;12.566;2023-06-01T07:15:11;23.00;99.90
37410;DHT22;23275;48.914;12.566;2023-06-01T07:17:36;23.20;99.90
37410;DHT22;23275;48.914;12.566;2023-06-01T07:20:03;23.30;99.90
37410;DHT22;23275;48.914;12.566;2023-06-01T07:22:35;23.50;99.90
37410;DHT22;23275;48.914;12.566;2023-06-01T07:25:00;23.70;99.90
37410;DHT22;23275;48.914;12.566;2023-06-01T07:27:26;23.90;99.90
37410;DHT22;23275;48.914;12.566;2023-06-01T07:29:52;24.20;99.90
37410;DHT22;23275;48.914;12.566;2023-06-01T07:32:21;24.30;99.90
37410;DHT22;23275;48.914;12.566;2023-06-01T07:34:47;24.50;99.50
37410;DHT22;23275;48.914;12.566;2023-06-01T07:37:12;24.70;98.90
37410;DHT22;23275;48.914;12.566;2023-06-01T07:39:38;24.70;95.90
37410;DHT22;23275;48.914;12.566;2023-06-01T07:42:03;24.90;98.00
37410;DHT22;23275;48.914;12.566;2023-06-01T07:44:29;24.90;95.90
37410;DHT22;23275;48.914;12.566;2023-06-01T07:46:54;24.80;95.30
37410;DHT22;23275;48.914;12.566;2023-06-01T07:49:20;24.70;95.40
37410;DHT22;23275;48.914;12.566;2023-06-01T07:51:46;24.70;95.40
37410;DHT22;23275;48.914;12.566;2023-06-01T07:54:12;24.60;96.10
37410;DHT22;23275;48.914;12.566;2023-06-01T07:56:37;24.40;95.50
37410;DHT22;23275;48.914;12.566;2023-06-01T07:59:03;24.50;96.00
37410;DHT22;23275;48.914;12.566;2023-06-01T08:01:28;24.60;95.00
37410;DHT22;23275;48.914;12.566;2023-06-01T08:03:54;24.40;95.00
37410;DHT22;23275;48.914;12.566;2023-06-01T08:06:21;24.40;94.50
37410;DHT22;23275;48.914;12.566;2023-06-01T08:08:51;24.70;96.10
37410;DHT22;23275;48.914;12.566;2023-06-01T08:11:17;25.00;94.30
37410;DHT22;23275;48.914;12.566;2023-06-01T08:13:44;25.00;92.90
37410;DHT22;23275;48.914;12.566;2023-06-01T08:16:11;25.30;93.80
37410;DHT22;23275;48.914;12.566;2023-06-01T08:18:38;25.40;93.10
37410;DHT22;23275;48.914;12.566;2023-06-01T08:21:04;25.60;92.60
37410;DHT22;23275;48.914;12.566;2023-06-01T08:23:30;25.80;88.40
37410;DHT22;23275;48.914;12.566;2023-06-01T08:25:56;26.10;91.30
37410;DHT22;23275;48.914;12.566;2023-06-01T08:28:22;26.10;85.70
37410;DHT22;23275;48.914;12.566;2023-06-01T08:30:47;26.20;87.20
37410;DHT22;23275;48.914;12.566;2023-06-01T08:33:13;26.30;87.90
37410;DHT22;23275;48.914;12.566;2023-06-01T08:35:38;26.50;86.60
37410;DHT22;23275;48.914;12.566;2023-06-01T08:38:04;26.60;79.70
37410;DHT22;23275;48.914;12.566;2023-06-01T08:40:30;26.70;79.20
37410;DHT22;23275;48.914;12.566;2023-06-01T08:43:19;26.90;76.70
37410;DHT22;23275;48.914;12.566;2023-06-01T08:45:45;27.10;76.10
37410;DHT22;23275;48.914;12.566;2023-06-01T08:48:16;27.20;71.70
37410;DHT22;23275;48.914;12.566;2023-06-01T08:50:47;27.40;67.70
37410;DHT22;23275;48.914;12.566;2023-06-01T08:53:15;27.50;68.80
37410;DHT22;23275;48.914;12.566;2023-06-01T08:55:53;27.50;74.80
37410;DHT22;23275;48.914;12.566;2023-06-01T08:58:19;27.50;68.80
37410;DHT22;23275;48.914;12.566;2023-06-01T09:00:48;27.60;70.10
37410;DHT22;23275;48.914;12.566;2023-06-01T09:03:14;27.50;67.20
37410;DHT22;23275;48.914;12.566;2023-06-01T09:05:40;27.50;71.50
37410;DHT22;23275;48.914;12.566;2023-06-01T09:08:06;27.80;73.70
37410;DHT22;23275;48.914;12.566;2023-06-01T09:10:32;27.80;70.30
37410;DHT22;23275;48.914;12.566;2023-06-01T09:12:58;28.00;68.90
37410;DHT22;23275;48.914;12.566;2023-06-01T09:15:25;28.30;69.30
37410;DHT22;23275;48.914;12.566;2023-06-01T09:17:52;28.50;69.60
37410;DHT22;23275;48.914;12.566;2023-06-01T09:20:29;28.70;68.40
37410;DHT22;23275;48.914;12.566;2023-06-01T09:22:57;28.90;66.50
37410;DHT22;23275;48.914;12.566;2023-06-01T09:25:31;29.10;61.80
37410;DHT22;23275;48.914;12.566;2023-06-01T09:27:58;29.10;67.10
37410;DHT22;23275;48.914;12.566;2023-06-01T09:30:26;29.20;59.20
37410;DHT22;23275;48.914;12.566;2023-06-01T09:33:12;29.40;62.40
37410;DHT22;23275;48.914;12.566;2023-06-01T09:35:46;29.50;59.50
37410;DHT22;23275;48.914;12.566;2023-06-01T09:38:23;29.60;61.40
37410;DHT22;23275;48.914;12.566;2023-06-01T09:41:02;29.70;58.70
37410;DHT22;23275;48.914;12.566;2023-06-01T09:43:28;29.80;60.20
37410;DHT22;23275;48.914;12.566;2023-06-01T09:46:07;29.90;60.50
37410;DHT22;23275;48.914;12.566;2023-06-01T09:48:33;29.80;60.80
37410;DHT22;23275;48.914;12.566;2023-06-01T09:50:59;29.50;57.70
37410;DHT22;23275;48.914;12.566;2023-06-01T09:53:25;29.60;57.30
37410;DHT22;23275;48.914;12.566;2023-06-01T09:56:01;29.60;59.90
37410;DHT22;23275;48.914;12.566;2023-06-01T09:58:27;29.90;61.70
37410;DHT22;23275;48.914;12.566;2023-06-01T10:00:53;30.00;59.70
37410;DHT22;23275;48.914;12.566;2023-06-01T10:03:21;30.50;59.90
37410;DHT22;23275;48.914;12.566;2023-06-01T10:05:49;30.60;57.60
37410;DHT22;23275;48.914;12.566;2023-06-01T10:08:16;31.10;58.30
37410;DHT22;23275;48.914;12.566;2023-06-01T10:10:48;31.50;56.80
37410;DHT22;23275;48.914;12.566;2023-06-01T10:13:15;32.00;52.60
37410;DHT22;23275;48.914;12.566;2023-06-01T10:15:41;32.60;57.40
37410;DHT22;23275;48.914;12.566;2023-06-01T10:18:07;33.00;52.30
37410;DHT22;23275;48.914;12.566;2023-06-01T10:20:34;33.60;54.00
37410;DHT22;23275;48.914;12.566;2023-06-01T10:23:01;34.10;53.00
37410;DHT22;23275;48.914;12.566;2023-06-01T10:25:31;34.00;52.30
37410;DHT22;23275;48.914;12.566;2023-06-01T10:28:02;34.10;55.50
37410;DHT22;23275;48.914;12.566;2023-06-01T10:30:28;34.00;52.80
37410;DHT22;23275;48.914;12.566;2023-06-01T10:32:54;33.90;50.20
37410;DHT22;23275;48.914;12.566;2023-06-01T10:40:39;34.20;47.00
37410;DHT22;23275;48.914;12.566;2023-06-01T10:43:05;34.40;49.90
37410;DHT22;23275;48.914;12.566;2023-06-01T10:47:59;34.00;49.30
37410;DHT22;23275;48.914;12.566;2023-06-01T10:50:25;33.90;49.50
37410;DHT22;23275;48.914;12.566;2023-06-01T10:52:51;34.20;48.60
37410;DHT22;23275;48.914;12.566;2023-06-01T10:57:43;35.00;49.50
37410;DHT22;23275;48.914;12.566;2023-06-01T11:00:11;35.40;46.30
37410;DHT22;23275;48.914;12.566;2023-06-01T11:05:50;36.00;47.80
37410;DHT22;23275;48.914;12.566;2023-06-01T11:10:58;36.90;45.20
37410;DHT22;23275;48.914;12.566;2023-06-01T11:13:32;36.80;42.70
37410;DHT22;23275;48.914;12.566;2023-06-01T11:18:54;37.00;43.70
37410;DHT22;23275;48.914;12.566;2023-06-01T11:23:58;36.90;48.00
37410;DHT22;23275;48.914;12.566;2023-06-01T11:26:29;36.50;43.30
37410;DHT22;23275;48.914;12.566;2023-06-01T11:31:36;35.10;46.00
37410;DHT22;23275;48.914;12.566;2023-06-01T11:34:02;34.40;45.10
37410;DHT22;23275;48.914;12.566;2023-06-01T11:36:29;33.10;46.50
37410;DHT22;23275;48.914;12.566;2023-06-01T11:38:55;31.90;53.80
37410;DHT22;23275;48.914;12.566;2023-06-01T11:41:21;30.80;53.30
37410;DHT22;23275;48.914;12.566;2023-06-01T11:43:57;29.80;58.10
37410;DHT22;23275;48.914;12.566;2023-06-01T11:46:24;29.40;54.80
37410;DHT22;23275;48.914;12.566;2023-06-01T11:49:06;29.30;56.10
37410;DHT22;23275;48.914;12.566;2023-06-01T11:51:38;29.10;57.30
37410;DHT22;23275;48.914;12.566;2023-06-01T11:54:05;28.90;59.90
37410;DHT22;23275;48.914;12.566;2023-06-01T11:56:32;28.90;57.70
37410;DHT22;23275;48.914;12.566;2023-06-01T11:58:59;28.90;59.10
37410;DHT22;23275;48.914;12.566;2023-06-01T12:01:26;29.00;55.70
37410;DHT22;23275;48.914;12.566;2023-06-01T12:03:52;28.90;56.80
37410;DHT22;23275;48.914;12.566;2023-06-01T12:06:21;28.70;57.90
37410;DHT22;23275;48.914;12.566;2023-06-01T12:08:49;28.70;58.20
37410;DHT22;23275;48.914;12.566;2023-06-01T12:11:18;28.70;53.80
37410;DHT22;23275;48.914;12.566;2023-06-01T12:13:45;28.80;55.40
37410;DHT22;23275;48.914;12.566;2023-06-01T12:16:13;28.50;56.10
37410;DHT22;23275;48.914;12.566;2023-06-01T12:18:38;28.40;54.20
37410;DHT22;23275;48.914;12.566;2023-06-01T12:21:11;28.20;60.00
37410;DHT22;23275;48.914;12.566;2023-06-01T12:23:38;27.90;58.20
37410;DHT22;23275;48.914;12.566;2023-06-01T12:26:04;27.90;61.50
37410;DHT22;23275;48.914;12.566;2023-06-01T12:28:47;27.70;63.00
37410;DHT22;23275;48.914;12.566;2023-06-01T12:31:15;27.60;60.10
37410;DHT22;23275;48.914;12.566;2023-06-01T12:33:41;27.50;55.80
37410;DHT22;23275;48.914;12.566;2023-06-01T12:36:09;27.50;55.50
37410;DHT22;23275;48.914;12.566;2023-06-01T12:41:14;27.50;57.50
37410;DHT22;23275;48.914;12.566;2023-06-01T12:43:47;27.60;59.50
37410;DHT22;23275;48.914;12.566;2023-06-01T12:46:29;27.60;58.80
37410;DHT22;23275;48.914;12.566;2023-06-01T12:49:17;27.60;54.80
37410;DHT22;23275;48.914;12.566;2023-06-01T12:51:43;27.70;55.30
37410;DHT22;23275;48.914;12.566;2023-06-01T12:54:09;27.70;54.10
37410;DHT22;23275;48.914;12.566;2023-06-01T12:56:35;27.80;56.70
37410;DHT22;23275;48.914;12.566;2023-06-01T12:59:00;27.90;58.70
37410;DHT22;23275;48.914;12.566;2023-06-01T13:01:26;27.90;59.90
37410;DHT22;23275;48.914;12.566;2023-06-01T13:03:52;27.90;55.80
37410;DHT22;23275;48.914;12.566;2023-06-01T13:06:18;27.90;59.50
37410;DHT22;23275;48.914;12.566;2023-06-01T13:08:44;27.80;54.30
37410;DHT22;23275;48.914;12.566;2023-06-01T13:11:09;27.90;58.90
37410;DHT22;23275;48.914;12.566;2023-06-01T13:13:35;27.80;59.50
37410;DHT22;23275;48.914;12.566;2023-06-01T13:16:01;27.70;59.00
37410;DHT22;23275;48.914;12.566;2023-06-01T13:18:27;27.70;57.80
37410;DHT22;23275;48.914;12.566;2023-06-01T13:20:53;27.70;59.00
37410;DHT22;23275;48.914;12.566;2023-06-01T13:23:18;27.60;59.00
37410;DHT22;23275;48.914;12.566;2023-06-01T13:25:45;27.60;59.00
37410;DHT22;23275;48.914;12.566;2023-06-01T13:28:10;27.70;56.60
37410;DHT22;23275;48.914;12.566;2023-06-01T13:30:38;27.50;55.20
37410;DHT22;23275;48.914;12.566;2023-06-01T13:33:05;27.50;56.30
37410;DHT22;23275;48.914;12.566;2023-06-01T13:35:32;27.40;54.30
37410;DHT22;23275;48.914;12.566;2023-06-01T13:37:57;27.40;54.50
37410;DHT22;23275;48.914;12.566;2023-06-01T13:40:24;27.40;54.70
37410;DHT22;23275;48.914;12.566;2023-06-01T13:42:50;27.30;56.80
37410;DHT22;23275;48.914;12.566;2023-06-01T13:45:17;27.20;58.50
37410;DHT22;23275;48.914;12.566;2023-06-01T13:47:43;27.10;58.60
37410;DHT22;23275;48.914;12.566;2023-06-01T13:50:10;27.00;58.00
37410;DHT22;23275;48.914;12.566;2023-06-01T13:52:38;27.00;62.30
37410;DHT22;23275;48.914;12.566;2023-06-01T13:55:03;27.00;57.20
37410;DHT22;23275;48.914;12.566;2023-06-01T13:57:29;27.00;58.40
37410;DHT22;23275;48.914;12.566;2023-06-01T13:59:55;27.00;58.60
37410;DHT22;23275;48.914;12.566;2023-06-01T14:02:20;26.90;55.70
37410;DHT22;23275;48.914;12.566;2023-06-01T14:04:46;26.90;56.00
37410;DHT22;23275;48.914;12.566;2023-06-01T14:07:11;27.00;57.60
37410;DHT22;23275;48.914;12.566;2023-06-01T14:09:37;27.10;56.70
37410;DHT22;23275;48.914;12.566;2023-06-01T14:12:02;27.10;56.20
37410;DHT22;23275;48.914;12.566;2023-06-01T14:14:28;26.90;54.30
37410;DHT22;23275;48.914;12.566;2023-06-01T14:16:54;26.80;57.70
37410;DHT22;23275;48.914;12.566;2023-06-01T14:19:19;26.80;59.50
37410;DHT22;23275;48.914;12.566;2023-06-01T14:21:45;26.70;60.30
37410;DHT22;23275;48.914;12.566;2023-06-01T14:24:10;26.70;57.90
37410;DHT22;23275;48.914;12.566;2023-06-01T14:26:36;26.70;58.60
37410;DHT22;23275;48.914;12.566;2023-06-01T14:29:01;26.70;58.90
37410;DHT22;23275;48.914;12.566;2023-06-01T14:31:27;26.70;62.60
37410;DHT22;23275;48.914;12.566;2023-06-01T14:33:52;26.80;63.00
37410;DHT22;23275;48.914;12.566;2023-06-01T14:36:18;26.70;57.40
37410;DHT22;23275;48.914;12.566;2023-06-01T14:38:45;26.70;58.90
37410;DHT22;23275;48.914;12.566;2023-06-01T14:41:11;26.70;59.00
37410;DHT22;23275;48.914;12.566;2023-06-01T14:43:36;26.80;60.30
37410;DHT22;23275;48.914;12.566;2023-06-01T14:46:04;26.90;58.70
37410;DHT22;23275;48.914;12.566;2023-06-01T14:48:30;26.90;56.00
37410;DHT22;23275;48.914;12.566;2023-06-01T14:50:55;26.90;55.70
37410;DHT22;23275;48.914;12.566;2023-06-01T14:53:21;26.90;57.10
37410;DHT22;23275;48.914;12.566;2023-06-01T14:55:47;26.90;55.40
37410;DHT22;23275;48.914;12.566;2023-06-01T14:58:12;26.80;55.90
37410;DHT22;23275;48.914;12.566;2023-06-01T15:00:38;26.70;56.70
37410;DHT22;23275;48.914;12.566;2023-06-01T15:03:04;26.60;56.40
37410;DHT22;23275;48.914;12.566;2023-06-01T15:05:30;26.50;54.10
37410;DHT22;23275;48.914;12.566;2023-06-01T15:07:56;26.40;51.90
37410;DHT22;23275;48.914;12.566;2023-06-01T15:10:21;26.40;53.80
37410;DHT22;23275;48.914;12.566;2023-06-01T15:12:47;26.30;62.10
37410;DHT22;23275;48.914;12.566;2023-06-01T15:15:13;26.30;58.20
37410;DHT22;23275;48.914;12.566;2023-06-01T15:17:39;26.20;55.20
37410;DHT22;23275;48.914;12.566;2023-06-01T15:20:06;26.20;56.00
37410;DHT22;23275;48.914;12.566;2023-06-01T15:22:32;26.00;56.10
37410;DHT22;23275;48.914;12.566;2023-06-01T15:24:57;26.00;58.00
37410;DHT22;23275;48.914;12.566;2023-06-01T15:27:23;26.00;57.60
37410;DHT22;23275;48.914;12.566;2023-06-01T15:29:49;26.00;54.90
37410;DHT22;23275;48.914;12.566;2023-06-01T15:32:15;26.00;57.30
37410;DHT22;23275;48.914;12.566;2023-06-01T15:34:41;26.00;56.50
37410;DHT22;23275;48.914;12.566;2023-06-01T15:37:08;26.00;55.70
37410;DHT22;23275;48.914;12.566;2023-06-01T15:39:35;26.00;57.80
37410;DHT22;23275;48.914;12.566;2023-06-01T15:42:05;25.90;54.90
37410;DHT22;23275;48.914;12.566;2023-06-01T15:44:31;25.90;54.10
37410;DHT22;23275;48.914;12.566;2023-06-01T15:46:56;25.90;52.90
37410;DHT22;23275;48.914;12.566;2023-06-01T15:49:22;25.90;55.10
37410;DHT22;23275;48.914;12.566;2023-06-01T15:51:47;25.90;56.10
37410;DHT22;23275;48.914;12.566;2023-06-01T15:54:13;25.80;55.40